sensor_id;sensor_type;location;lat;lon;timestamp;pressure;altitude;pressure_sealevel;temperature;humidity
29359;BME280;16347;53.232;6.556;2023-01-27T00:01:08;102682.22;;;7.81;66.37
29359;BME280;16347;53.232;6.556;2023-01-27T00:03:36;102687.34;;;7.85;66.71
29359;BME280;16347;53.232;6.556;2023-01-27T00:06:04;102684.44;;;7.88;66.77
29359;BME280;16347;53.232;6.556;2023-01-27T00:08:37;102685.19;;;7.90;66.80
29359;BME280;16347;53.232;6.556;2023-01-27T00:11:06;102684.44;;;7.88;66.87
29359;BME280;16347;53.232;6.556;2023-01-27T00:13:54;102687.53;;;7.96;67.45
29359;BME280;16347;53.232;6.556;2023-01-27T00:16:22;102692.06;;;7.96;67.05
29359;BME280;16347;53.232;6.556;2023-01-27T00:18:50;102693.91;;;7.81;67.00
29359;BME280;16347;53.232;6.556;2023-01-27T00:21:19;102695.56;;;7.84;66.72
29359;BME280;16347;53.232;6.556;2023-01-27T00:24:05;102703.59;;;7.85;66.99
29359;BME280;16347;53.232;6.556;2023-01-27T00:26:51;102706.78;;;7.78;67.34
29359;BME280;16347;53.232;6.556;2023-01-27T00:29:21;102704.81;;;7.80;67.28
29359;BME280;16347;53.232;6.556;2023-01-27T00:31:50;102703.00;;;7.80;66.60
29359;BME280;16347;53.232;6.556;2023-01-27T00:34:36;102706.50;;;7.82;66.97
29359;BME280;16347;53.232;6.556;2023-01-27T00:37:07;102708.22;;;7.83;66.79
29359;BME280;16347;53.232;6.556;2023-01-27T00:39:36;102708.22;;;7.83;67.00
29359;BME280;16347;53.232;6.556;2023-01-27T00:42:04;102705.31;;;7.86;67.04
29359;BME280;16347;53.232;6.556;2023-01-27T00:44:36;102709.69;;;7.89;66.56
29359;BME280;16347;53.232;6.556;2023-01-27T00:47:04;102711.34;;;7.91;66.54
29359;BME280;16347;53.232;6.556;2023-01-27T00:49:32;102708.31;;;7.96;66.06
29359;BME280;16347;53.232;6.556;2023-01-27T00:52:00;102705.03;;;7.91;65.86
29359;BME280;16347;53.232;6.556;2023-01-27T00:54:28;102712.97;;;7.94;65.65
29359;BME280;16347;53.232;6.556;2023-01-27T00:56:57;102716.81;;;7.90;65.48
29359;BME280;16347;53.232;6.556;2023-01-27T00:59:25;102709.22;;;7.82;65.33
29359;BME280;16347;53.232;6.556;2023-01-27T01:01:55;102709.97;;;7.84;65.14
29359;BME280;16347;53.232;6.556;2023-01-27T01:04:23;102715.38;;;7.84;65.03
29359;BME280;16347;53.232;6.556;2023-01-27T01:06:52;102721.94;;;7.80;64.89
29359;BME280;16347;53.232;6.556;2023-01-27T01:09:20;102727.19;;;7.83;64.61
29359;BME280;16347;53.232;6.556;2023-01-27T01:11:48;102718.75;;;7.73;64.99
29359;BME280;16347;53.232;6.556;2023-01-27T01:14:16;102717.69;;;7.76;64.98
29359;BME280;16347;53.232;6.556;2023-01-27T01:16:44;102727.06;;;7.70;64.87
29359;BME280;16347;53.232;6.556;2023-01-27T01:19:13;102724.44;;;7.55;64.53
29359;BME280;16347;53.232;6.556;2023-01-27T01:21:41;102728.47;;;7.48;64.08
29359;BME280;16347;53.232;6.556;2023-01-27T01:24:09;102731.00;;;7.51;63.66
29359;BME280;16347;53.232;6.556;2023-01-27T01:26:37;102733.25;;;7.58;63.95
29359;BME280;16347;53.232;6.556;2023-01-27T01:29:05;102731.81;;;7.67;63.64
29359;BME280;16347;53.232;6.556;2023-01-27T01:31:33;102735.78;;;7.76;63.43
29359;BME280;16347;53.232;6.556;2023-01-27T01:34:02;102738.56;;;7.60;64.00
29359;BME280;16347;53.232;6.556;2023-01-27T01:36:32;102742.56;;;7.68;63.97
29359;BME280;16347;53.232;6.556;2023-01-27T01:39:04;102743.31;;;7.70;63.86
29359;BME280;16347;53.232;6.556;2023-01-27T01:41:32;102749.16;;;7.79;63.62
29359;BME280;16347;53.232;6.556;2023-01-27T01:44:18;102746.72;;;7.88;63.71
29359;BME280;16347;53.232;6.556;2023-01-27T01:46:46;102744.03;;;7.88;62.97
29359;BME280;16347;53.232;6.556;2023-01-27T01:49:15;102749.44;;;7.88;63.16
29359;BME280;16347;53.232;6.556;2023-01-27T01:51:49;102754.66;;;7.91;62.78
29359;BME280;16347;53.232;6.556;2023-01-27T01:54:23;102748.44;;;7.89;62.79
29359;BME280;16347;53.232;6.556;2023-01-27T01:56:59;102754.06;;;7.86;63.18
29359;BME280;16347;53.232;6.556;2023-01-27T01:59:31;102742.53;;;7.83;63.22
29359;BME280;16347;53.232;6.556;2023-01-27T02:02:04;102752.22;;;7.87;63.06
29359;BME280;16347;53.232;6.556;2023-01-27T02:04:37;102741.88;;;7.93;63.55
29359;BME280;16347;53.232;6.556;2023-01-27T02:07:11;102746.91;;;7.99;63.38
29359;BME280;16347;53.232;6.556;2023-01-27T02:09:41;102753.81;;;8.05;63.10
29359;BME280;16347;53.232;6.556;2023-01-27T02:12:10;102741.22;;;8.04;62.33
29359;BME280;16347;53.232;6.556;2023-01-27T02:14:38;102742.28;;;8.01;62.24
29359;BME280;16347;53.232;6.556;2023-01-27T02:17:07;102754.09;;;8.00;61.34
29359;BME280;16347;53.232;6.556;2023-01-27T02:19:40;102745.66;;;7.91;61.01
29359;BME280;16347;53.232;6.556;2023-01-27T02:22:18;102739.09;;;7.95;60.80
29359;BME280;16347;53.232;6.556;2023-01-27T02:24:55;102743.91;;;7.90;60.49
29359;BME280;16347;53.232;6.556;2023-01-27T02:27:29;102747.09;;;7.96;60.34
29359;BME280;16347;53.232;6.556;2023-01-27T02:29:58;102739.59;;;8.01;60.58
29359;BME280;16347;53.232;6.556;2023-01-27T02:32:26;102751.09;;;8.05;60.19
29359;BME280;16347;53.232;6.556;2023-01-27T02:34:55;102742.84;;;8.06;60.05
29359;BME280;16347;53.232;6.556;2023-01-27T02:37:24;102747.72;;;8.01;59.67
29359;BME280;16347;53.232;6.556;2023-01-27T02:39:54;102748.28;;;7.92;59.79
29359;BME280;16347;53.232;6.556;2023-01-27T02:42:23;102758.34;;;7.90;60.32
29359;BME280;16347;53.232;6.556;2023-01-27T02:44:52;102752.16;;;7.88;59.91
29359;BME280;16347;53.232;6.556;2023-01-27T02:47:21;102745.94;;;7.72;60.02
29359;BME280;16347;53.232;6.556;2023-01-27T02:49:49;102743.69;;;7.64;60.26
29359;BME280;16347;53.232;6.556;2023-01-27T02:52:17;102744.28;;;7.69;60.23
29359;BME280;16347;53.232;6.556;2023-01-27T02:54:45;102748.72;;;7.70;60.47
29359;BME280;16347;53.232;6.556;2023-01-27T02:57:13;102752.88;;;7.76;60.08
29359;BME280;16347;53.232;6.556;2023-01-27T02:59:55;102744.09;;;7.72;59.50
29359;BME280;16347;53.232;6.556;2023-01-27T03:02:23;102746.44;;;7.79;59.61
29359;BME280;16347;53.232;6.556;2023-01-27T03:04:56;102757.84;;;7.84;59.19
29359;BME280;16347;53.232;6.556;2023-01-27T03:07:27;102756.97;;;7.83;58.84
29359;BME280;16347;53.232;6.556;2023-01-27T03:09:55;102766.84;;;7.84;58.94
29359;BME280;16347;53.232;6.556;2023-01-27T03:12:23;102764.03;;;7.86;59.39
29359;BME280;16347;53.232;6.556;2023-01-27T03:14:51;102759.66;;;7.83;58.74
29359;BME280;16347;53.232;6.556;2023-01-27T03:17:39;102769.94;;;7.78;58.52
29359;BME280;16347;53.232;6.556;2023-01-27T03:20:26;102770.13;;;7.75;58.42
29359;BME280;16347;53.232;6.556;2023-01-27T03:22:54;102772.34;;;7.68;58.66
29359;BME280;16347;53.232;6.556;2023-01-27T03:25:24;102771.22;;;7.57;58.94
29359;BME280;16347;53.232;6.556;2023-01-27T03:27:54;102778.59;;;7.69;58.61
29359;BME280;16347;53.232;6.556;2023-01-27T03:30:43;102780.81;;;7.62;58.67
29359;BME280;16347;53.232;6.556;2023-01-27T03:33:19;102775.06;;;7.53;58.78
29359;BME280;16347;53.232;6.556;2023-01-27T03:35:52;102788.97;;;7.77;58.53
29359;BME280;16347;53.232;6.556;2023-01-27T03:38:45;102783.00;;;7.42;59.11
29359;BME280;16347;53.232;6.556;2023-01-27T03:41:30;102785.41;;;7.46;59.67
29359;BME280;16347;53.232;6.556;2023-01-27T03:44:16;102783.16;;;7.39;59.28
29359;BME280;16347;53.232;6.556;2023-01-27T03:47:01;102786.91;;;7.36;58.96
29359;BME280;16347;53.232;6.556;2023-01-27T03:49:31;102786.16;;;7.34;59.08
29359;BME280;16347;53.232;6.556;2023-01-27T03:51:59;102791.25;;;7.39;58.41
29359;BME280;16347;53.232;6.556;2023-01-27T03:54:28;102792.13;;;7.39;59.15
29359;BME280;16347;53.232;6.556;2023-01-27T03:56:56;102793.25;;;7.51;58.76
29359;BME280;16347;53.232;6.556;2023-01-27T03:59:33;102788.97;;;7.47;58.53
29359;BME280;16347;53.232;6.556;2023-01-27T04:02:01;102794.81;;;7.55;58.17
29359;BME280;16347;53.232;6.556;2023-01-27T04:04:49;102785.31;;;7.48;57.12
29359;BME280;16347;53.232;6.556;2023-01-27T04:07:35;102787.41;;;7.43;57.07
29359;BME280;16347;53.232;6.556;2023-01-27T04:10:05;102795.41;;;7.30;56.25
29359;BME280;16347;53.232;6.556;2023-01-27T04:12:34;102789.53;;;7.38;56.28
29359;BME280;16347;53.232;6.556;2023-01-27T04:15:01;102800.28;;;7.23;55.89
29359;BME280;16347;53.232;6.556;2023-01-27T04:17:29;102801.94;;;7.26;56.33
29359;BME280;16347;53.232;6.556;2023-01-27T04:20:07;102795.75;;;7.24;55.89
29359;BME280;16347;53.232;6.556;2023-01-27T04:22:36;102801.78;;;7.13;56.08
29359;BME280;16347;53.232;6.556;2023-01-27T04:25:05;102810.06;;;7.26;56.02
29359;BME280;16347;53.232;6.556;2023-01-27T04:27:34;102801.56;;;7.32;55.83
29359;BME280;16347;53.232;6.556;2023-01-27T04:30:02;102803.50;;;7.30;56.04
29359;BME280;16347;53.232;6.556;2023-01-27T04:32:31;102797.59;;;7.23;56.76
29359;BME280;16347;53.232;6.556;2023-01-27T04:34:59;102804.47;;;7.29;56.85
29359;BME280;16347;53.232;6.556;2023-01-27T04:37:29;102806.66;;;7.38;56.58
29359;BME280;16347;53.232;6.556;2023-01-27T04:39:57;102804.16;;;7.49;56.71
29359;BME280;16347;53.232;6.556;2023-01-27T04:42:25;102816.41;;;7.41;56.47
29359;BME280;16347;53.232;6.556;2023-01-27T04:44:53;102811.44;;;7.33;57.01
29359;BME280;16347;53.232;6.556;2023-01-27T04:47:21;102818.31;;;7.39;56.96
29359;BME280;16347;53.232;6.556;2023-01-27T04:49:49;102816.81;;;7.49;57.09
29359;BME280;16347;53.232;6.556;2023-01-27T04:52:17;102815.69;;;7.53;56.72
29359;BME280;16347;53.232;6.556;2023-01-27T04:54:48;102818.38;;;7.53;57.00
29359;BME280;16347;53.232;6.556;2023-01-27T04:57:16;102816.28;;;7.58;56.26
29359;BME280;16347;53.232;6.556;2023-01-27T04:59:45;102816.16;;;7.45;56.47
29359;BME280;16347;53.232;6.556;2023-01-27T05:02:13;102821.47;;;7.47;56.44
29359;BME280;16347;53.232;6.556;2023-01-27T05:04:41;102824.44;;;7.42;56.74
29359;BME280;16347;53.232;6.556;2023-01-27T05:07:10;102826.09;;;7.45;56.98
29359;BME280;16347;53.232;6.556;2023-01-27T05:09:38;102822.22;;;7.49;57.29
29359;BME280;16347;53.232;6.556;2023-01-27T05:12:07;102817.63;;;7.51;56.91
29359;BME280;16347;53.232;6.556;2023-01-27T05:14:35;102826.50;;;7.53;57.43
29359;BME280;16347;53.232;6.556;2023-01-27T05:17:03;102839.53;;;7.62;57.26
29359;BME280;16347;53.232;6.556;2023-01-27T05:19:32;102837.59;;;7.64;56.96
29359;BME280;16347;53.232;6.556;2023-01-27T05:21:59;102828.81;;;7.45;57.12
29359;BME280;16347;53.232;6.556;2023-01-27T05:24:28;102830.19;;;7.52;56.74
29359;BME280;16347;53.232;6.556;2023-01-27T05:26:57;102831.53;;;7.45;56.63
29359;BME280;16347;53.232;6.556;2023-01-27T05:29:26;102832.50;;;7.28;56.69
29359;BME280;16347;53.232;6.556;2023-01-27T05:31:55;102830.81;;;7.26;57.11
29359;BME280;16347;53.232;6.556;2023-01-27T05:34:23;102834.91;;;7.33;57.28
29359;BME280;16347;53.232;6.556;2023-01-27T05:36:51;102837.13;;;7.42;57.03
29359;BME280;16347;53.232;6.556;2023-01-27T05:39:19;102833.28;;;7.30;57.50
29359;BME280;16347;53.232;6.556;2023-01-27T05:41:48;102829.69;;;7.30;57.64
29359;BME280;16347;53.232;6.556;2023-01-27T05:44:16;102817.81;;;7.32;57.71
29359;BME280;16347;53.232;6.556;2023-01-27T05:46:45;102816.00;;;7.17;58.00
29359;BME280;16347;53.232;6.556;2023-01-27T05:49:14;102827.97;;;7.13;57.91
29359;BME280;16347;53.232;6.556;2023-01-27T05:51:42;102828.06;;;7.11;57.83
29359;BME280;16347;53.232;6.556;2023-01-27T05:54:10;102821.88;;;7.25;58.09
29359;BME280;16347;53.232;6.556;2023-01-27T05:56:37;102814.25;;;7.32;57.79
29359;BME280;16347;53.232;6.556;2023-01-27T05:59:06;102812.88;;;7.25;57.50
29359;BME280;16347;53.232;6.556;2023-01-27T06:01:34;102809.38;;;7.22;57.17
29359;BME280;16347;53.232;6.556;2023-01-27T06:04:05;102804.13;;;7.19;57.22
29359;BME280;16347;53.232;6.556;2023-01-27T06:06:34;102801.25;;;7.22;57.13
29359;BME280;16347;53.232;6.556;2023-01-27T06:09:02;102803.06;;;7.22;57.25
29359;BME280;16347;53.232;6.556;2023-01-27T06:11:30;102817.81;;;7.32;57.12
29359;BME280;16347;53.232;6.556;2023-01-27T06:13:58;102819.13;;;7.41;57.29
29359;BME280;16347;53.232;6.556;2023-01-27T06:16:27;102824.84;;;7.50;57.33
29359;BME280;16347;53.232;6.556;2023-01-27T06:18:55;102830.78;;;7.57;56.60
29359;BME280;16347;53.232;6.556;2023-01-27T06:21:25;102829.13;;;7.54;56.91
29359;BME280;16347;53.232;6.556;2023-01-27T06:23:53;102836.13;;;7.58;56.66
29359;BME280;16347;53.232;6.556;2023-01-27T06:26:23;102836.97;;;7.59;56.97
29359;BME280;16347;53.232;6.556;2023-01-27T06:28:51;102844.06;;;7.61;56.72
29359;BME280;16347;53.232;6.556;2023-01-27T06:31:20;102845.00;;;7.60;56.53
29359;BME280;16347;53.232;6.556;2023-01-27T06:33:49;102845.88;;;7.61;56.66
29359;BME280;16347;53.232;6.556;2023-01-27T06:36:19;102851.22;;;7.47;56.52
29359;BME280;16347;53.232;6.556;2023-01-27T06:38:50;102847.41;;;7.51;56.66
29359;BME280;16347;53.232;6.556;2023-01-27T06:41:18;102853.94;;;7.47;56.61
29359;BME280;16347;53.232;6.556;2023-01-27T06:43:46;102859.19;;;7.34;56.92
29359;BME280;16347;53.232;6.556;2023-01-27T06:46:15;102866.00;;;7.41;57.64
29359;BME280;16347;53.232;6.556;2023-01-27T06:48:43;102868.91;;;7.38;57.45
29359;BME280;16347;53.232;6.556;2023-01-27T06:51:11;102863.81;;;7.32;57.21
29359;BME280;16347;53.232;6.556;2023-01-27T06:53:40;102878.31;;;7.31;57.31
29359;BME280;16347;53.232;6.556;2023-01-27T06:56:09;102881.72;;;7.35;57.81
29359;BME280;16347;53.232;6.556;2023-01-27T06:58:37;102881.09;;;7.30;57.85
29359;BME280;16347;53.232;6.556;2023-01-27T07:01:06;102881.19;;;7.44;57.68
29359;BME280;16347;53.232;6.556;2023-01-27T07:03:34;102877.41;;;7.46;57.68
29359;BME280;16347;53.232;6.556;2023-01-27T07:06:03;102876.53;;;7.46;58.15
29359;BME280;16347;53.232;6.556;2023-01-27T07:08:31;102878.81;;;7.53;58.05
29359;BME280;16347;53.232;6.556;2023-01-27T07:11:01;102878.63;;;7.56;57.74
29359;BME280;16347;53.232;6.556;2023-01-27T07:13:32;102879.31;;;7.60;58.44
29359;BME280;16347;53.232;6.556;2023-01-27T07:16:00;102882.53;;;7.66;58.39
29359;BME280;16347;53.232;6.556;2023-01-27T07:18:30;102884.13;;;7.70;58.54
29359;BME280;16347;53.232;6.556;2023-01-27T07:20:58;102879.13;;;7.79;58.37
29359;BME280;16347;53.232;6.556;2023-01-27T07:23:28;102882.78;;;7.78;57.97
29359;BME280;16347;53.232;6.556;2023-01-27T07:25:56;102890.81;;;7.79;58.19
29359;BME280;16347;53.232;6.556;2023-01-27T07:28:26;102891.88;;;7.77;57.90
29359;BME280;16347;53.232;6.556;2023-01-27T07:31:00;102889.78;;;7.82;58.06
29359;BME280;16347;53.232;6.556;2023-01-27T07:33:30;102906.97;;;7.81;58.12
29359;BME280;16347;53.232;6.556;2023-01-27T07:35:59;102911.63;;;7.79;58.38
29359;BME280;16347;53.232;6.556;2023-01-27T07:38:37;102908.81;;;7.80;58.49
29359;BME280;16347;53.232;6.556;2023-01-27T07:41:06;102918.06;;;7.76;59.09
29359;BME280;16347;53.232;6.556;2023-01-27T07:43:34;102927.00;;;7.78;58.36
29359;BME280;16347;53.232;6.556;2023-01-27T07:46:08;102926.19;;;7.76;58.17
29359;BME280;16347;53.232;6.556;2023-01-27T07:48:37;102921.25;;;7.68;58.72
29359;BME280;16347;53.232;6.556;2023-01-27T07:51:05;102923.16;;;7.66;59.23
29359;BME280;16347;53.232;6.556;2023-01-27T07:53:33;102923.06;;;7.68;59.93
29359;BME280;16347;53.232;6.556;2023-01-27T07:56:01;102923.66;;;7.73;60.08
29359;BME280;16347;53.232;6.556;2023-01-27T07:58:29;102926.13;;;7.78;60.18
29359;BME280;16347;53.232;6.556;2023-01-27T08:00:57;102924.19;;;7.80;60.24
29359;BME280;16347;53.232;6.556;2023-01-27T08:03:27;102924.19;;;7.80;60.25
29359;BME280;16347;53.232;6.556;2023-01-27T08:05:55;102926.88;;;7.80;60.35
29359;BME280;16347;53.232;6.556;2023-01-27T08:08:24;102931.94;;;7.86;60.41
29359;BME280;16347;53.232;6.556;2023-01-27T08:10:52;102932.03;;;7.84;60.41
29359;BME280;16347;53.232;6.556;2023-01-27T08:13:20;102923.22;;;7.81;60.45
29359;BME280;16347;53.232;6.556;2023-01-27T08:15:54;102916.53;;;7.72;61.31
29359;BME280;16347;53.232;6.556;2023-01-27T08:18:23;102929.59;;;7.80;61.07
29359;BME280;16347;53.232;6.556;2023-01-27T08:20:54;102929.69;;;7.78;61.83
29359;BME280;16347;53.232;6.556;2023-01-27T08:23:22;102928.91;;;7.76;61.48
29359;BME280;16347;53.232;6.556;2023-01-27T08:25:51;102927.94;;;7.77;61.40
29359;BME280;16347;53.232;6.556;2023-01-27T08:28:20;102927.25;;;7.73;61.30
29359;BME280;16347;53.232;6.556;2023-01-27T08:30:51;102930.75;;;7.76;61.96
29359;BME280;16347;53.232;6.556;2023-01-27T08:33:20;102941.41;;;7.79;61.97
29359;BME280;16347;53.232;6.556;2023-01-27T08:35:49;102940.53;;;7.78;62.21
29359;BME280;16347;53.232;6.556;2023-01-27T08:38:19;102947.78;;;7.78;62.22
29359;BME280;16347;53.232;6.556;2023-01-27T08:40:48;102953.88;;;7.81;62.02
29359;BME280;16347;53.232;6.556;2023-01-27T08:43:17;102949.34;;;7.82;62.04
29359;BME280;16347;53.232;6.556;2023-01-27T08:45:46;102953.72;;;7.84;62.13
29359;BME280;16347;53.232;6.556;2023-01-27T08:48:14;102959.91;;;7.86;62.14
29359;BME280;16347;53.232;6.556;2023-01-27T08:50:42;102961.84;;;7.84;61.75
29359;BME280;16347;53.232;6.556;2023-01-27T08:53:10;102969.00;;;7.85;61.92
29359;BME280;16347;53.232;6.556;2023-01-27T08:55:40;102974.13;;;7.90;62.15
29359;BME280;16347;53.232;6.556;2023-01-27T08:58:08;102977.31;;;7.82;62.07
29359;BME280;16347;53.232;6.556;2023-01-27T09:00:36;102980.88;;;7.83;62.88
29359;BME280;16347;53.232;6.556;2023-01-27T09:03:04;102976.50;;;7.80;62.88
29359;BME280;16347;53.232;6.556;2023-01-27T09:05:34;102969.09;;;7.84;62.52
29359;BME280;16347;53.232;6.556;2023-01-27T09:08:04;102971.09;;;7.80;62.72
29359;BME280;16347;53.232;6.556;2023-01-27T09:10:35;102975.56;;;7.81;62.87
29359;BME280;16347;53.232;6.556;2023-01-27T09:13:06;102984.63;;;7.80;62.96
29359;BME280;16347;53.232;6.556;2023-01-27T09:15:34;102990.94;;;7.81;63.05
29359;BME280;16347;53.232;6.556;2023-01-27T09:18:03;102976.94;;;7.72;63.47
29359;BME280;16347;53.232;6.556;2023-01-27T09:20:32;102988.91;;;7.84;62.83
29359;BME280;16347;53.232;6.556;2023-01-27T09:23:03;102994.50;;;7.81;62.81
29359;BME280;16347;53.232;6.556;2023-01-27T09:25:32;102996.16;;;7.84;62.97
29359;BME280;16347;53.232;6.556;2023-01-27T09:28:00;102990.16;;;7.79;62.83
29359;BME280;16347;53.232;6.556;2023-01-27T09:30:30;102992.00;;;7.78;62.81
29359;BME280;16347;53.232;6.556;2023-01-27T09:32:59;102997.13;;;7.83;63.23
29359;BME280;16347;53.232;6.556;2023-01-27T09:35:32;102992.78;;;7.64;63.53
29359;BME280;16347;53.232;6.556;2023-01-27T09:38:04;102992.16;;;7.75;63.65
29359;BME280;16347;53.232;6.556;2023-01-27T09:40:43;102983.06;;;7.76;63.81
29359;BME280;16347;53.232;6.556;2023-01-27T09:43:29;102982.44;;;7.87;63.95
29359;BME280;16347;53.232;6.556;2023-01-27T09:46:26;102991.00;;;7.95;63.68
29359;BME280;16347;53.232;6.556;2023-01-27T09:49:16;102989.19;;;7.95;63.77
29359;BME280;16347;53.232;6.556;2023-01-27T09:51:58;102986.72;;;7.91;63.23
29359;BME280;16347;53.232;6.556;2023-01-27T09:54:40;102979.13;;;7.97;63.03
29359;BME280;16347;53.232;6.556;2023-01-27T09:57:18;102995.88;;;8.04;63.26
29359;BME280;16347;53.232;6.556;2023-01-27T10:00:04;102981.19;;;8.08;63.22
29359;BME280;16347;53.232;6.556;2023-01-27T10:03:05;102988.25;;;8.10;62.63
29359;BME280;16347;53.232;6.556;2023-01-27T10:05:51;102992.81;;;8.10;62.22
29359;BME280;16347;53.232;6.556;2023-01-27T10:08:38;102990.53;;;8.18;62.79
29359;BME280;16347;53.232;6.556;2023-01-27T10:11:17;102997.25;;;8.11;62.21
29359;BME280;16347;53.232;6.556;2023-01-27T10:13:56;102993.78;;;8.09;62.55
29359;BME280;16347;53.232;6.556;2023-01-27T10:16:48;102992.53;;;8.14;61.98
29359;BME280;16347;53.232;6.556;2023-01-27T10:19:37;102984.84;;;8.22;61.06
29359;BME280;16347;53.232;6.556;2023-01-27T10:22:15;102985.19;;;8.16;60.96
29359;BME280;16347;53.232;6.556;2023-01-27T10:24:59;102989.28;;;8.23;60.75
29359;BME280;16347;53.232;6.556;2023-01-27T10:27:35;102992.16;;;8.20;60.07
29359;BME280;16347;53.232;6.556;2023-01-27T10:30:10;102988.78;;;8.17;60.22
29359;BME280;16347;53.232;6.556;2023-01-27T10:32:43;102993.94;;;8.21;60.47
29359;BME280;16347;53.232;6.556;2023-01-27T10:35:16;102984.84;;;8.22;59.99
29359;BME280;16347;53.232;6.556;2023-01-27T10:37:53;102982.03;;;8.24;60.04
29359;BME280;16347;53.232;6.556;2023-01-27T10:40:32;102986.47;;;8.25;59.43
29359;BME280;16347;53.232;6.556;2023-01-27T10:43:09;102990.41;;;8.19;59.48
29359;BME280;16347;53.232;6.556;2023-01-27T10:45:43;102986.75;;;8.20;59.17
29359;BME280;16347;53.232;6.556;2023-01-27T10:48:26;102987.00;;;8.16;59.85
29359;BME280;16347;53.232;6.556;2023-01-27T10:51:00;102992.34;;;8.17;59.94
29359;BME280;16347;53.232;6.556;2023-01-27T10:53:35;102994.56;;;8.11;59.06
29359;BME280;16347;53.232;6.556;2023-01-27T10:56:09;102990.72;;;7.99;58.19
29359;BME280;16347;53.232;6.556;2023-01-27T10:58:45;102984.00;;;7.91;57.03
29359;BME280;16347;53.232;6.556;2023-01-27T11:01:17;102996.28;;;7.82;57.38
29359;BME280;16347;53.232;6.556;2023-01-27T11:03:52;102991.81;;;7.81;57.36
29359;BME280;16347;53.232;6.556;2023-01-27T11:06:27;102991.81;;;7.81;57.85
29359;BME280;16347;53.232;6.556;2023-01-27T11:09:03;102978.34;;;7.80;58.20
29359;BME280;16347;53.232;6.556;2023-01-27T11:11:33;102982.28;;;7.74;57.70
29359;BME280;16347;53.232;6.556;2023-01-27T11:14:15;102984.75;;;7.79;57.96
29359;BME280;16347;53.232;6.556;2023-01-27T11:16:47;102984.56;;;7.82;58.59
29359;BME280;16347;53.232;6.556;2023-01-27T11:19:23;102978.16;;;7.83;58.95
29359;BME280;16347;53.232;6.556;2023-01-27T11:21:56;102981.03;;;7.80;58.52
29359;BME280;16347;53.232;6.556;2023-01-27T11:24:44;102984.75;;;7.79;58.82
29359;BME280;16347;53.232;6.556;2023-01-27T11:27:22;102976.19;;;7.70;59.46
29359;BME280;16347;53.232;6.556;2023-01-27T11:29:55;102982.47;;;7.55;58.93
29359;BME280;16347;53.232;6.556;2023-01-27T11:32:35;102976.53;;;7.64;59.66
29359;BME280;16347;53.232;6.556;2023-01-27T11:35:09;102978.19;;;7.67;59.89
29359;BME280;16347;53.232;6.556;2023-01-27T11:37:40;102975.13;;;7.73;59.87
29359;BME280;16347;53.232;6.556;2023-01-27T11:40:15;102974.44;;;7.85;59.60
29359;BME280;16347;53.232;6.556;2023-01-27T11:42:45;102973.25;;;7.89;59.18
29359;BME280;16347;53.232;6.556;2023-01-27T11:45:14;102983.41;;;7.86;58.97
29359;BME280;16347;53.232;6.556;2023-01-27T11:47:46;102975.00;;;7.90;59.21
29359;BME280;16347;53.232;6.556;2023-01-27T11:50:17;102967.16;;;7.86;59.48
29359;BME280;16347;53.232;6.556;2023-01-27T11:52:51;102957.13;;;7.88;59.17
29359;BME280;16347;53.232;6.556;2023-01-27T11:55:25;102964.09;;;7.92;58.87
29359;BME280;16347;53.232;6.556;2023-01-27T11:58:00;102965.75;;;7.94;58.88
29359;BME280;16347;53.232;6.556;2023-01-27T12:00:37;102957.69;;;7.93;59.25
29359;BME280;16347;53.232;6.556;2023-01-27T12:03:15;102963.84;;;7.81;59.08
29359;BME280;16347;53.232;6.556;2023-01-27T12:05:50;102961.03;;;7.98;59.28
29359;BME280;16347;53.232;6.556;2023-01-27T12:08:41;102957.56;;;8.10;60.03
29359;BME280;16347;53.232;6.556;2023-01-27T12:11:22;102957.94;;;8.04;59.38
29359;BME280;16347;53.232;6.556;2023-01-27T12:13:54;102963.47;;;7.87;59.59
29359;BME280;16347;53.232;6.556;2023-01-27T12:16:26;102956.84;;;7.92;59.32
29359;BME280;16347;53.232;6.556;2023-01-27T12:19:02;102955.78;;;7.95;59.59
29359;BME280;16347;53.232;6.556;2023-01-27T12:21:41;102965.13;;;8.05;60.13
29359;BME280;16347;53.232;6.556;2023-01-27T12:24:22;102963.00;;;8.10;59.81
29359;BME280;16347;53.232;6.556;2023-01-27T12:26:52;102957.00;;;8.05;59.20
29359;BME280;16347;53.232;6.556;2023-01-27T12:29:25;102951.56;;;8.05;59.27
29359;BME280;16347;53.232;6.556;2023-01-27T12:31:57;102954.59;;;8.14;58.96
29359;BME280;16347;53.232;6.556;2023-01-27T12:34:33;102949.94;;;8.16;59.21
29359;BME280;16347;53.232;6.556;2023-01-27T12:37:04;102950.66;;;8.20;58.80
29359;BME280;16347;53.232;6.556;2023-01-27T12:39:41;102953.72;;;8.14;58.64
29359;BME280;16347;53.232;6.556;2023-01-27T12:42:37;102957.13;;;8.17;59.43
29359;BME280;16347;53.232;6.556;2023-01-27T12:45:27;102954.22;;;8.20;59.75
29359;BME280;16347;53.232;6.556;2023-01-27T12:48:09;102946.28;;;8.17;59.58
29359;BME280;16347;53.232;6.556;2023-01-27T12:50:52;102956.25;;;8.17;59.63
29359;BME280;16347;53.232;6.556;2023-01-27T12:53:21;102953.03;;;8.10;59.56
29359;BME280;16347;53.232;6.556;2023-01-27T12:55:58;102952.66;;;8.16;58.87
29359;BME280;16347;53.232;6.556;2023-01-27T12:58:33;102957.06;;;8.03;58.12
29359;BME280;16347;53.232;6.556;2023-01-27T13:01:04;102943.13;;;7.95;58.37
29359;BME280;16347;53.232;6.556;2023-01-27T13:03:36;102951.72;;;8.17;58.11
29359;BME280;16347;53.232;6.556;2023-01-27T13:06:06;102946.34;;;8.02;58.37
29359;BME280;16347;53.232;6.556;2023-01-27T13:08:37;102951.16;;;7.97;57.84
29359;BME280;16347;53.232;6.556;2023-01-27T13:11:08;102947.09;;;8.04;57.77
29359;BME280;16347;53.232;6.556;2023-01-27T13:13:46;102950.50;;;8.07;58.31
29359;BME280;16347;53.232;6.556;2023-01-27T13:16:24;102943.94;;;8.11;57.86
29359;BME280;16347;53.232;6.556;2023-01-27T13:18:54;102946.47;;;8.14;57.88
29359;BME280;16347;53.232;6.556;2023-01-27T13:21:26;102946.28;;;8.17;58.03
29359;BME280;16347;53.232;6.556;2023-01-27T13:23:56;102945.22;;;8.20;57.44
29359;BME280;16347;53.232;6.556;2023-01-27T13:26:31;102954.72;;;8.27;57.17